sensor_id;sensor_type;location;lat;lon;timestamp;P1;durP1;ratioP1;P2;durP2;ratioP2
14599;SDS011;7386;45.586;12.854;2023-02-01T00:00:44;98.20;;;56.03;;
14599;SDS011;7386;45.586;12.854;2023-02-01T00:03:12;93.83;;;54.50;;
14599;SDS011;7386;45.586;12.854;2023-02-01T00:05:41;98.57;;;56.70;;
14599;SDS011;7386;45.586;12.854;2023-02-01T00:08:09;92.83;;;53.83;;
14599;SDS011;7386;45.586;12.854;2023-02-01T00:10:37;93.60;;;54.23;;
14599;SDS011;7386;45.586;12.854;2023-02-01T00:13:06;90.37;;;55.03;;
14599;SDS011;7386;45.586;12.854;2023-02-01T00:15:34;92.90;;;52.50;;
14599;SDS011;7386;45.586;12.854;2023-02-01T00:18:04;103.93;;;57.60;;
14599;SDS011;7386;45.586;12.854;2023-02-01T00:20:33;90.90;;;53.67;;
14599;SDS011;7386;45.586;12.854;2023-02-01T00:23:01;99.10;;;54.77;;
14599;SDS011;7386;45.586;12.854;2023-02-01T00:25:31;96.03;;;55.47;;
14599;SDS011;7386;45.586;12.854;2023-02-01T00:27:59;96.27;;;53.67;;
14599;SDS011;7386;45.586;12.854;2023-02-01T00:30:28;92.80;;;53.67;;
14599;SDS011;7386;45.586;12.854;2023-02-01T00:32:56;96.27;;;53.27;;
14599;SDS011;7386;45.586;12.854;2023-02-01T00:35:26;87.13;;;52.37;;
14599;SDS011;7386;45.586;12.854;2023-02-01T00:37:54;87.93;;;51.07;;
14599;SDS011;7386;45.586;12.854;2023-02-01T00:40:24;92.07;;;52.60;;
14599;SDS011;7386;45.586;12.854;2023-02-01T00:42:53;80.67;;;48.83;;
14599;SDS011;7386;45.586;12.854;2023-02-01T00:45:23;85.50;;;51.50;;
14599;SDS011;7386;45.586;12.854;2023-02-01T00:47:52;87.13;;;51.67;;
14599;SDS011;7386;45.586;12.854;2023-02-01T00:50:20;86.50;;;52.20;;
14599;SDS011;7386;45.586;12.854;2023-02-01T00:52:50;85.90;;;50.83;;
14599;SDS011;7386;45.586;12.854;2023-02-01T00:55:18;91.03;;;54.40;;
14599;SDS011;7386;45.586;12.854;2023-02-01T00:57:47;89.47;;;51.17;;
14599;SDS011;7386;45.586;12.854;2023-02-01T01:00:16;83.97;;;50.47;;
14599;SDS011;7386;45.586;12.854;2023-02-01T01:02:45;85.70;;;52.40;;
14599;SDS011;7386;45.586;12.854;2023-02-01T01:05:13;82.33;;;50.40;;
14599;SDS011;7386;45.586;12.854;2023-02-01T01:07:42;81.37;;;47.57;;
14599;SDS011;7386;45.586;12.854;2023-02-01T01:10:12;86.27;;;52.00;;
14599;SDS011;7386;45.586;12.854;2023-02-01T01:12:42;91.27;;;52.87;;
14599;SDS011;7386;45.586;12.854;2023-02-01T01:15:11;85.23;;;51.53;;
14599;SDS011;7386;45.586;12.854;2023-02-01T01:17:39;87.93;;;50.50;;
14599;SDS011;7386;45.586;12.854;2023-02-01T01:20:09;86.33;;;50.30;;
14599;SDS011;7386;45.586;12.854;2023-02-01T01:22:38;89.53;;;50.10;;
14599;SDS011;7386;45.586;12.854;2023-02-01T01:25:07;88.33;;;50.30;;
14599;SDS011;7386;45.586;12.854;2023-02-01T01:27:37;78.37;;;47.53;;
14599;SDS011;7386;45.586;12.854;2023-02-01T01:30:05;81.77;;;47.60;;
14599;SDS011;7386;45.586;12.854;2023-02-01T01:32:34;76.90;;;46.47;;
14599;SDS011;7386;45.586;12.854;2023-02-01T01:35:03;84.33;;;45.97;;
14599;SDS011;7386;45.586;12.854;2023-02-01T01:37:32;80.93;;;47.20;;
14599;SDS011;7386;45.586;12.854;2023-02-01T01:40:02;70.57;;;43.83;;
14599;SDS011;7386;45.586;12.854;2023-02-01T01:42:30;79.03;;;45.23;;
14599;SDS011;7386;45.586;12.854;2023-02-01T01:45:07;74.40;;;43.03;;
14599;SDS011;7386;45.586;12.854;2023-02-01T01:47:37;70.83;;;42.97;;
14599;SDS011;7386;45.586;12.854;2023-02-01T01:50:08;65.30;;;41.90;;
14599;SDS011;7386;45.586;12.854;2023-02-01T01:52:38;70.23;;;45.07;;
14599;SDS011;7386;45.586;12.854;2023-02-01T01:55:07;69.67;;;44.03;;
14599;SDS011;7386;45.586;12.854;2023-02-01T01:57:37;67.47;;;42.70;;
14599;SDS011;7386;45.586;12.854;2023-02-01T02:00:09;73.10;;;43.73;;
14599;SDS011;7386;45.586;12.854;2023-02-01T02:02:38;70.47;;;41.80;;
14599;SDS011;7386;45.586;12.854;2023-02-01T02:05:07;62.10;;;40.53;;
14599;SDS011;7386;45.586;12.854;2023-02-01T02:07:37;67.03;;;41.23;;
14599;SDS011;7386;45.586;12.854;2023-02-01T02:10:06;67.37;;;41.90;;
14599;SDS011;7386;45.586;12.854;2023-02-01T02:12:37;68.43;;;41.77;;
14599;SDS011;7386;45.586;12.854;2023-02-01T02:15:08;66.53;;;41.73;;
14599;SDS011;7386;45.586;12.854;2023-02-01T02:17:38;67.00;;;40.00;;
14599;SDS011;7386;45.586;12.854;2023-02-01T02:20:28;65.93;;;39.07;;
14599;SDS011;7386;45.586;12.854;2023-02-01T02:26:02;64.07;;;39.87;;
14599;SDS011;7386;45.586;12.854;2023-02-01T02:34:08;58.67;;;35.17;;
14599;SDS011;7386;45.586;12.854;2023-02-01T02:36:39;52.73;;;34.13;;
14599;SDS011;7386;45.586;12.854;2023-02-01T02:39:14;60.33;;;35.47;;
14599;SDS011;7386;45.586;12.854;2023-02-01T02:41:49;55.30;;;34.27;;
14599;SDS011;7386;45.586;12.854;2023-02-01T02:44:39;52.73;;;34.43;;
14599;SDS011;7386;45.586;12.854;2023-02-01T02:47:30;60.30;;;33.43;;
14599;SDS011;7386;45.586;12.854;2023-02-01T02:50:08;53.17;;;33.60;;
14599;SDS011;7386;45.586;12.854;2023-02-01T02:52:57;52.27;;;32.67;;
14599;SDS011;7386;45.586;12.854;2023-02-01T02:55:43;49.73;;;31.17;;
14599;SDS011;7386;45.586;12.854;2023-02-01T02:58:12;59.13;;;34.53;;
14599;SDS011;7386;45.586;12.854;2023-02-01T03:00:59;52.43;;;33.53;;
14599;SDS011;7386;45.586;12.854;2023-02-01T03:03:45;57.50;;;34.47;;
14599;SDS011;7386;45.586;12.854;2023-02-01T03:06:37;52.07;;;31.87;;
14599;SDS011;7386;45.586;12.854;2023-02-01T03:09:08;52.57;;;31.67;;
14599;SDS011;7386;45.586;12.854;2023-02-01T03:11:38;53.10;;;31.73;;
14599;SDS011;7386;45.586;12.854;2023-02-01T03:14:25;51.20;;;31.30;;
14599;SDS011;7386;45.586;12.854;2023-02-01T03:16:57;54.57;;;32.73;;
14599;SDS011;7386;45.586;12.854;2023-02-01T03:19:27;50.63;;;32.60;;
14599;SDS011;7386;45.586;12.854;2023-02-01T03:21:58;52.17;;;31.83;;
14599;SDS011;7386;45.586;12.854;2023-02-01T03:24:28;44.43;;;29.20;;
14599;SDS011;7386;45.586;12.854;2023-02-01T03:27:02;46.70;;;30.03;;
14599;SDS011;7386;45.586;12.854;2023-02-01T03:29:37;46.47;;;29.93;;
14599;SDS011;7386;45.586;12.854;2023-02-01T03:32:06;47.63;;;28.97;;
14599;SDS011;7386;45.586;12.854;2023-02-01T03:34:35;48.27;;;30.33;;
14599;SDS011;7386;45.586;12.854;2023-02-01T03:37:06;47.57;;;30.17;;
14599;SDS011;7386;45.586;12.854;2023-02-01T03:39:36;50.50;;;30.07;;
14599;SDS011;7386;45.586;12.854;2023-02-01T03:42:07;45.37;;;28.77;;
14599;SDS011;7386;45.586;12.854;2023-02-01T03:44:38;44.47;;;28.50;;
14599;SDS011;7386;45.586;12.854;2023-02-01T03:47:09;44.63;;;28.47;;
14599;SDS011;7386;45.586;12.854;2023-02-01T03:49:39;48.13;;;27.63;;
14599;SDS011;7386;45.586;12.854;2023-02-01T03:52:10;45.43;;;28.97;;
14599;SDS011;7386;45.586;12.854;2023-02-01T03:54:39;46.83;;;27.50;;
14599;SDS011;7386;45.586;12.854;2023-02-01T03:57:10;42.50;;;27.53;;
14599;SDS011;7386;45.586;12.854;2023-02-01T03:59:39;44.53;;;26.70;;
14599;SDS011;7386;45.586;12.854;2023-02-01T04:02:08;47.13;;;28.53;;
14599;SDS011;7386;45.586;12.854;2023-02-01T04:04:37;41.77;;;24.53;;
14599;SDS011;7386;45.586;12.854;2023-02-01T04:07:05;44.17;;;26.33;;
14599;SDS011;7386;45.586;12.854;2023-02-01T04:09:35;46.93;;;28.70;;
14599;SDS011;7386;45.586;12.854;2023-02-01T04:12:04;41.63;;;26.40;;
14599;SDS011;7386;45.586;12.854;2023-02-01T04:14:32;41.73;;;26.27;;
14599;SDS011;7386;45.586;12.854;2023-02-01T04:17:01;47.83;;;27.03;;
14599;SDS011;7386;45.586;12.854;2023-02-01T04:19:29;45.70;;;26.37;;
14599;SDS011;7386;45.586;12.854;2023-02-01T04:21:58;44.13;;;26.73;;
14599;SDS011;7386;45.586;12.854;2023-02-01T04:24:26;43.07;;;25.60;;
14599;SDS011;7386;45.586;12.854;2023-02-01T04:26:56;40.60;;;25.47;;
14599;SDS011;7386;45.586;12.854;2023-02-01T04:29:24;42.33;;;26.07;;
14599;SDS011;7386;45.586;12.854;2023-02-01T04:31:53;42.87;;;26.20;;
14599;SDS011;7386;45.586;12.854;2023-02-01T04:34:21;42.17;;;26.13;;
14599;SDS011;7386;45.586;12.854;2023-02-01T04:36:51;39.13;;;24.17;;
14599;SDS011;7386;45.586;12.854;2023-02-01T04:39:19;41.80;;;25.77;;
14599;SDS011;7386;45.586;12.854;2023-02-01T04:41:47;40.27;;;24.13;;
14599;SDS011;7386;45.586;12.854;2023-02-01T04:44:17;44.33;;;25.87;;
14599;SDS011;7386;45.586;12.854;2023-02-01T04:46:46;48.80;;;27.17;;
14599;SDS011;7386;45.586;12.854;2023-02-01T04:49:15;41.27;;;25.63;;
14599;SDS011;7386;45.586;12.854;2023-02-01T04:51:43;45.33;;;26.20;;
14599;SDS011;7386;45.586;12.854;2023-02-01T04:54:12;45.87;;;25.53;;
14599;SDS011;7386;45.586;12.854;2023-02-01T04:56:40;44.57;;;25.80;;
14599;SDS011;7386;45.586;12.854;2023-02-01T04:59:09;41.93;;;24.97;;
14599;SDS011;7386;45.586;12.854;2023-02-01T05:01:39;46.00;;;26.20;;
14599;SDS011;7386;45.586;12.854;2023-02-01T05:04:08;42.43;;;25.80;;
14599;SDS011;7386;45.586;12.854;2023-02-01T05:06:36;45.17;;;25.73;;
14599;SDS011;7386;45.586;12.854;2023-02-01T05:09:05;42.90;;;26.63;;
14599;SDS011;7386;45.586;12.854;2023-02-01T05:11:33;52.63;;;29.43;;
14599;SDS011;7386;45.586;12.854;2023-02-01T05:14:19;45.10;;;27.00;;
14599;SDS011;7386;45.586;12.854;2023-02-01T05:16:49;44.73;;;26.60;;
14599;SDS011;7386;45.586;12.854;2023-02-01T05:19:17;40.00;;;24.63;;
14599;SDS011;7386;45.586;12.854;2023-02-01T05:21:46;39.63;;;24.23;;
14599;SDS011;7386;45.586;12.854;2023-02-01T05:24:15;46.47;;;27.50;;
14599;SDS011;7386;45.586;12.854;2023-02-01T05:26:46;42.50;;;24.83;;
14599;SDS011;7386;45.586;12.854;2023-02-01T05:29:15;44.53;;;26.30;;
14599;SDS011;7386;45.586;12.854;2023-02-01T05:31:45;39.90;;;24.37;;
14599;SDS011;7386;45.586;12.854;2023-02-01T05:34:15;45.03;;;25.63;;
14599;SDS011;7386;45.586;12.854;2023-02-01T05:36:43;46.47;;;26.33;;
14599;SDS011;7386;45.586;12.854;2023-02-01T05:39:12;41.50;;;24.80;;
14599;SDS011;7386;45.586;12.854;2023-02-01T05:41:40;42.97;;;25.83;;
14599;SDS011;7386;45.586;12.854;2023-02-01T05:44:09;43.33;;;24.40;;
14599;SDS011;7386;45.586;12.854;2023-02-01T05:46:38;38.87;;;24.77;;
14599;SDS011;7386;45.586;12.854;2023-02-01T05:49:06;35.70;;;22.97;;
14599;SDS011;7386;45.586;12.854;2023-02-01T05:51:36;42.33;;;24.77;;
14599;SDS011;7386;45.586;12.854;2023-02-01T05:54:04;42.90;;;25.10;;
14599;SDS011;7386;45.586;12.854;2023-02-01T05:56:33;39.17;;;21.77;;
14599;SDS011;7386;45.586;12.854;2023-02-01T05:59:01;40.43;;;23.00;;
14599;SDS011;7386;45.586;12.854;2023-02-01T06:01:30;38.73;;;22.83;;
14599;SDS011;7386;45.586;12.854;2023-02-01T06:03:58;38.87;;;24.53;;
14599;SDS011;7386;45.586;12.854;2023-02-01T06:06:26;41.33;;;23.70;;
14599;SDS011;7386;45.586;12.854;2023-02-01T06:08:56;41.93;;;24.63;;
14599;SDS011;7386;45.586;12.854;2023-02-01T06:11:25;41.57;;;23.47;;
14599;SDS011;7386;45.586;12.854;2023-02-01T06:13:58;36.73;;;21.00;;
14599;SDS011;7386;45.586;12.854;2023-02-01T06:16:27;38.17;;;23.37;;
14599;SDS011;7386;45.586;12.854;2023-02-01T06:18:55;37.50;;;22.50;;
14599;SDS011;7386;45.586;12.854;2023-02-01T06:21:24;39.97;;;23.20;;
14599;SDS011;7386;45.586;12.854;2023-02-01T06:23:53;35.00;;;21.53;;
14599;SDS011;7386;45.586;12.854;2023-02-01T06:26:25;39.63;;;23.23;;
14599;SDS011;7386;45.586;12.854;2023-02-01T06:28:55;38.70;;;22.20;;
14599;SDS011;7386;45.586;12.854;2023-02-01T06:31:23;32.27;;;20.43;;
14599;SDS011;7386;45.586;12.854;2023-02-01T06:33:52;33.53;;;18.90;;
14599;SDS011;7386;45.586;12.854;2023-02-01T06:36:21;32.33;;;20.20;;
14599;SDS011;7386;45.586;12.854;2023-02-01T06:38:49;30.53;;;19.07;;
14599;SDS011;7386;45.586;12.854;2023-02-01T06:41:18;34.57;;;20.73;;
14599;SDS011;7386;45.586;12.854;2023-02-01T06:43:48;32.20;;;18.80;;
14599;SDS011;7386;45.586;12.854;2023-02-01T06:46:17;34.77;;;21.73;;
14599;SDS011;7386;45.586;12.854;2023-02-01T06:48:45;38.50;;;21.77;;
14599;SDS011;7386;45.586;12.854;2023-02-01T06:51:19;33.13;;;19.70;;
14599;SDS011;7386;45.586;12.854;2023-02-01T06:53:48;34.33;;;19.93;;
14599;SDS011;7386;45.586;12.854;2023-02-01T06:56:16;31.07;;;18.90;;
14599;SDS011;7386;45.586;12.854;2023-02-01T06:58:46;31.23;;;18.93;;
14599;SDS011;7386;45.586;12.854;2023-02-01T07:01:16;35.00;;;21.03;;
14599;SDS011;7386;45.586;12.854;2023-02-01T07:03:46;31.63;;;19.43;;
14599;SDS011;7386;45.586;12.854;2023-02-01T07:06:16;29.67;;;18.97;;
14599;SDS011;7386;45.586;12.854;2023-02-01T07:08:45;34.90;;;20.27;;
14599;SDS011;7386;45.586;12.854;2023-02-01T07:11:13;36.67;;;21.80;;
14599;SDS011;7386;45.586;12.854;2023-02-01T07:13:42;43.47;;;23.50;;
14599;SDS011;7386;45.586;12.854;2023-02-01T07:16:11;37.43;;;22.53;;
14599;SDS011;7386;45.586;12.854;2023-02-01T07:18:42;43.17;;;23.90;;
14599;SDS011;7386;45.586;12.854;2023-02-01T07:21:10;39.97;;;23.00;;
14599;SDS011;7386;45.586;12.854;2023-02-01T07:23:39;40.07;;;22.40;;
14599;SDS011;7386;45.586;12.854;2023-02-01T07:26:09;42.20;;;24.30;;
14599;SDS011;7386;45.586;12.854;2023-02-01T07:28:38;37.60;;;21.70;;
14599;SDS011;7386;45.586;12.854;2023-02-01T07:31:07;40.50;;;23.33;;
14599;SDS011;7386;45.586;12.854;2023-02-01T07:33:36;35.73;;;20.77;;
14599;SDS011;7386;45.586;12.854;2023-02-01T07:36:07;36.03;;;20.87;;
14599;SDS011;7386;45.586;12.854;2023-02-01T07:38:36;43.63;;;22.33;;
14599;SDS011;7386;45.586;12.854;2023-02-01T07:41:05;41.97;;;22.47;;
14599;SDS011;7386;45.586;12.854;2023-02-01T07:43:34;36.67;;;21.00;;
14599;SDS011;7386;45.586;12.854;2023-02-01T07:46:03;40.87;;;23.07;;
14599;SDS011;7386;45.586;12.854;2023-02-01T07:48:32;38.33;;;23.77;;
14599;SDS011;7386;45.586;12.854;2023-02-01T07:51:01;41.27;;;22.67;;
14599;SDS011;7386;45.586;12.854;2023-02-01T07:53:32;42.77;;;21.97;;
14599;SDS011;7386;45.586;12.854;2023-02-01T07:56:01;40.43;;;23.97;;
14599;SDS011;7386;45.586;12.854;2023-02-01T07:58:30;42.13;;;23.23;;
14599;SDS011;7386;45.586;12.854;2023-02-01T08:00:58;45.57;;;23.90;;
14599;SDS011;7386;45.586;12.854;2023-02-01T08:03:45;42.43;;;23.33;;
14599;SDS011;7386;45.586;12.854;2023-02-01T08:06:13;35.53;;;22.07;;
14599;SDS011;7386;45.586;12.854;2023-02-01T08:08:43;32.07;;;19.83;;
14599;SDS011;7386;45.586;12.854;2023-02-01T08:11:13;42.17;;;22.17;;
14599;SDS011;7386;45.586;12.854;2023-02-01T08:13:42;48.33;;;29.55;;
14599;SDS011;7386;45.586;12.854;2023-02-01T08:16:11;47.23;;;25.97;;
14599;SDS011;7386;45.586;12.854;2023-02-01T08:18:41;43.27;;;24.73;;
14599;SDS011;7386;45.586;12.854;2023-02-01T08:21:10;44.57;;;25.00;;
14599;SDS011;7386;45.586;12.854;2023-02-01T08:23:39;37.60;;;22.33;;
14599;SDS011;7386;45.586;12.854;2023-02-01T08:26:10;47.10;;;25.23;;
14599;SDS011;7386;45.586;12.854;2023-02-01T08:28:41;46.50;;;25.47;;
14599;SDS011;7386;45.586;12.854;2023-02-01T08:31:10;48.27;;;25.70;;
14599;SDS011;7386;45.586;12.854;2023-02-01T08:33:41;41.53;;;24.43;;
14599;SDS011;7386;45.586;12.854;2023-02-01T08:36:10;40.97;;;24.90;;
14599;SDS011;7386;45.586;12.854;2023-02-01T08:38:39;46.13;;;25.20;;
14599;SDS011;7386;45.586;12.854;2023-02-01T08:41:08;42.30;;;24.97;;
14599;SDS011;7386;45.586;12.854;2023-02-01T08:43:38;50.07;;;26.93;;
14599;SDS011;7386;45.586;12.854;2023-02-01T08:46:06;46.27;;;26.57;;
14599;SDS011;7386;45.586;12.854;2023-02-01T08:48:35;44.07;;;24.90;;
14599;SDS011;7386;45.586;12.854;2023-02-01T08:51:05;48.53;;;26.33;;
14599;SDS011;7386;45.586;12.854;2023-02-01T08:53:33;45.77;;;25.83;;
14599;SDS011;7386;45.586;12.854;2023-02-01T08:56:02;40.60;;;22.77;;
14599;SDS011;7386;45.586;12.854;2023-02-01T08:58:31;48.87;;;26.40;;
14599;SDS011;7386;45.586;12.854;2023-02-01T09:01:03;43.67;;;25.20;;
14599;SDS011;7386;45.586;12.854;2023-02-01T09:03:32;42.10;;;24.93;;
14599;SDS011;7386;45.586;12.854;2023-02-01T09:06:00;42.37;;;24.10;;
14599;SDS011;7386;45.586;12.854;2023-02-01T09:08:29;41.40;;;24.93;;
14599;SDS011;7386;45.586;12.854;2023-02-01T09:10:58;44.20;;;24.10;;
14599;SDS011;7386;45.586;12.854;2023-02-01T09:13:29;45.20;;;24.73;;
14599;SDS011;7386;45.586;12.854;2023-02-01T09:15:57;48.57;;;26.27;;
14599;SDS011;7386;45.586;12.854;2023-02-01T09:18:27;46.60;;;24.93;;
14599;SDS011;7386;45.586;12.854;2023-02-01T09:20:56;49.47;;;25.27;;
14599;SDS011;7386;45.586;12.854;2023-02-01T09:23:24;45.23;;;23.50;;
14599;SDS011;7386;45.586;12.854;2023-02-01T09:25:53;45.33;;;25.37;;
14599;SDS011;7386;45.586;12.854;2023-02-01T09:28:21;46.77;;;26.20;;
14599;SDS011;7386;45.586;12.854;2023-02-01T09:30:54;46.07;;;27.37;;
14599;SDS011;7386;45.586;12.854;2023-02-01T09:33:23;53.33;;;27.37;;
14599;SDS011;7386;45.586;12.854;2023-02-01T09:35:56;41.83;;;25.63;;
14599;SDS011;7386;45.586;12.854;2023-02-01T09:38:24;45.37;;;25.00;;
14599;SDS011;7386;45.586;12.854;2023-02-01T09:40:54;50.43;;;27.53;;
14599;SDS011;7386;45.586;12.854;2023-02-01T09:43:29;49.33;;;26.33;;
14599;SDS011;7386;45.586;12.854;2023-02-01T09:46:08;49.57;;;27.83;;
14599;SDS011;7386;45.586;12.854;2023-02-01T09:48:41;52.77;;;28.67;;
14599;SDS011;7386;45.586;12.854;2023-02-01T09:51:13;52.77;;;29.37;;
14599;SDS011;7386;45.586;12.854;2023-02-01T09:53:43;54.03;;;29.33;;
14599;SDS011;7386;45.586;12.854;2023-02-01T09:56:13;49.50;;;27.70;;
14599;SDS011;7386;45.586;12.854;2023-02-01T09:58:43;50.03;;;28.80;;
14599;SDS011;7386;45.586;12.854;2023-02-01T10:01:14;47.77;;;27.77;;
14599;SDS011;7386;45.586;12.854;2023-02-01T10:03:45;56.00;;;29.73;;
14599;SDS011;7386;45.586;12.854;2023-02-01T10:06:24;47.77;;;27.57;;
14599;SDS011;7386;45.586;12.854;2023-02-01T10:09:03;53.30;;;29.70;;
14599;SDS011;7386;45.586;12.854;2023-02-01T10:11:35;46.80;;;26.40;;
14599;SDS011;7386;45.586;12.854;2023-02-01T10:14:29;39.87;;;24.83;;
14599;SDS011;7386;45.586;12.854;2023-02-01T10:17:03;42.50;;;24.27;;
14599;SDS011;7386;45.586;12.854;2023-02-01T10:19:39;48.07;;;29.20;;
14599;SDS011;7386;45.586;12.854;2023-02-01T10:22:35;48.90;;;26.73;;
14599;SDS011;7386;45.586;12.854;2023-02-01T10:25:28;50.87;;;28.97;;
14599;SDS011;7386;45.586;12.854;2023-02-01T10:28:00;50.57;;;29.10;;
14599;SDS011;7386;45.586;12.854;2023-02-01T10:30:29;48.03;;;28.43;;
14599;SDS011;7386;45.586;12.854;2023-02-01T10:33:02;48.30;;;29.07;;
14599;SDS011;7386;45.586;12.854;2023-02-01T10:35:35;49.90;;;28.57;;
14599;SDS011;7386;45.586;12.854;2023-02-01T10:38:07;48.00;;;29.37;;
14599;SDS011;7386;45.586;12.854;2023-02-01T10:40:40;49.73;;;27.23;;
14599;SDS011;7386;45.586;12.854;2023-02-01T10:43:09;47.70;;;28.67;;
14599;SDS011;7386;45.586;12.854;2023-02-01T10:45:37;50.97;;;30.17;;
14599;SDS011;7386;45.586;12.854;2023-02-01T10:48:08;55.13;;;32.10;;
14599;SDS011;7386;45.586;12.854;2023-02-01T10:50:38;52.87;;;32.57;;
14599;SDS011;7386;45.586;12.854;2023-02-01T10:53:11;62.17;;;35.63;;
14599;SDS011;7386;45.586;12.854;2023-02-01T10:55:41;59.03;;;34.23;;
14599;SDS011;7386;45.586;12.854;2023-02-01T10:58:16;62.73;;;35.57;;
14599;SDS011;7386;45.586;12.854;2023-02-01T11:00:46;68.60;;;38.87;;
14599;SDS011;7386;45.586;12.854;2023-02-01T11:03:22;61.20;;;36.97;;
14599;SDS011;7386;45.586;12.854;2023-02-01T11:05:58;60.67;;;37.17;;
14599;SDS011;7386;45.586;12.854;2023-02-01T11:08:28;69.27;;;39.47;;
14599;SDS011;7386;45.586;12.854;2023-02-01T11:10:58;61.27;;;35.37;;
14599;SDS011;7386;45.586;12.854;2023-02-01T11:13:28;65.57;;;37.60;;
14599;SDS011;7386;45.586;12.854;2023-02-01T11:15:58;61.83;;;36.53;;
14599;SDS011;7386;45.586;12.854;2023-02-01T11:18:27;62.43;;;36.73;;
14599;SDS011;7386;45.586;12.854;2023-02-01T11:20:56;62.07;;;37.10;;
14599;SDS011;7386;45.586;12.854;2023-02-01T11:23:25;64.67;;;37.43;;
14599;SDS011;7386;45.586;12.854;2023-02-01T11:25:57;60.77;;;35.80;;
14599;SDS011;7386;45.586;12.854;2023-02-01T11:28:26;66.10;;;37.17;;
14599;SDS011;7386;45.586;12.854;2023-02-01T11:30:56;63.67;;;36.77;;
14599;SDS011;7386;45.586;12.854;2023-02-01T11:33:27;59.27;;;36.23;;
14599;SDS011;7386;45.586;12.854;2023-02-01T11:35:57;58.83;;;35.83;;
14599;SDS011;7386;45.586;12.854;2023-02-01T11:38:27;59.80;;;36.43;;
14599;SDS011;7386;45.586;12.854;2023-02-01T11:41:10;61.10;;;35.33;;
14599;SDS011;7386;45.586;12.854;2023-02-01T11:43:50;56.83;;;34.53;;
14599;SDS011;7386;45.586;12.854;2023-02-01T11:46:19;62.93;;;36.03;;
14599;SDS011;7386;45.586;12.854;2023-02-01T11:48:52;57.60;;;35.47;;
14599;SDS011;7386;45.586;12.854;2023-02-01T11:51:35;57.67;;;32.90;;
14599;SDS011;7386;45.586;12.854;2023-02-01T11:57:04;61.33;;;34.70;;
14599;SDS011;7386;45.586;12.854;2023-02-01T11:59:46;61.13;;;36.67;;
14599;SDS011;7386;45.586;12.854;2023-02-01T12:02:38;58.77;;;35.47;;
14599;SDS011;7386;45.586;12.854;2023-02-01T12:05:18;62.93;;;36.20;;
14599;SDS011;7386;45.586;12.854;2023-02-01T12:10:36;55.80;;;33.57;;
14599;SDS011;7386;45.586;12.854;2023-02-01T12:13:12;54.37;;;30.53;;
14599;SDS011;7386;45.586;12.854;2023-02-01T12:15:46;54.07;;;30.67;;
14599;SDS011;7386;45.586;12.854;2023-02-01T12:21:09;62.43;;;36.87;;
14599;SDS011;7386;45.586;12.854;2023-02-01T12:23:56;54.80;;;33.97;;
14599;SDS011;7386;45.586;12.854;2023-02-01T12:26:36;54.80;;;33.67;;
14599;SDS011;7386;45.586;12.854;2023-02-01T12:29:14;58.73;;;34.60;;
14599;SDS011;7386;45.586;12.854;2023-02-01T12:32:03;68.60;;;39.00;;
14599;SDS011;7386;45.586;12.854;2023-02-01T12:34:40;59.97;;;35.03;;
14599;SDS011;7386;45.586;12.854;2023-02-01T12:37:14;58.23;;;33.67;;
14599;SDS011;7386;45.586;12.854;2023-02-01T12:39:45;60.13;;;34.77;;
14599;SDS011;7386;45.586;12.854;2023-02-01T12:42:16;56.70;;;34.50;;
14599;SDS011;7386;45.586;12.854;2023-02-01T12:44:49;56.57;;;33.57;;
14599;SDS011;7386;45.586;12.854;2023-02-01T12:47:22;58.57;;;33.57;;
14599;SDS011;7386;45.586;12.854;2023-02-01T12:49:54;56.97;;;34.33;;
14599;SDS011;7386;45.586;12.854;2023-02-01T12:52:26;60.73;;;34.00;;
14599;SDS011;7386;45.586;12.854;2023-02-01T12:55:01;57.63;;;34.67;;
14599;SDS011;7386;45.586;12.854;2023-02-01T12:57:32;60.73;;;35.97;;
14599;SDS011;7386;45.586;12.854;2023-02-01T13:00:06;63.83;;;36.33;;
14599;SDS011;7386;45.586;12.854;2023-02-01T13:02:38;62.60;;;36.93;;
14599;SDS011;7386;45.586;12.854;2023-02-01T13:05:13;62.03;;;35.87;;
14599;SDS011;7386;45.586;12.854;2023-02-01T13:07:45;66.70;;;37.10;;
14599;SDS011;7386;45.586;12.854;2023-02-01T13:10:15;54.37;;;33.43;;
14599;SDS011;7386;45.586;12.854;2023-02-01T13:12:47;59.00;;;34.77;;
14599;SDS011;7386;45.586;12.854;2023-02-01T13:15:19;54.60;;;34.17;;
14599;SDS011;7386;45.586;12.854;2023-02-01T13:17:49;55.20;;;34.17;;
14599;SDS011;7386;45.586;12.854;2023-02-01T13:20:21;54.73;;;32.07;;
14599;SDS011;7386;45.586;12.854;2023-02-01T13:22:53;56.33;;;33.67;;
14599;SDS011;7386;45.586;12.854;2023-02-01T13:25:26;53.70;;;32.13;;
14599;SDS011;7386;45.586;12.854;2023-02-01T13:27:55;55.73;;;34.47;;
14599;SDS011;7386;45.586;12.854;2023-02-01T13:30:29;55.40;;;33.63;;
14599;SDS011;7386;45.586;12.854;2023-02-01T13:33:06;62.47;;;37.17;;
14599;SDS011;7386;45.586;12.854;2023-02-01T13:38:54;70.07;;;40.63;;
14599;SDS011;7386;45.586;12.854;2023-02-01T13:41:31;57.73;;;35.57;;
14599;SDS011;7386;45.586;12.854;2023-02-01T13:44:01;65.60;;;36.07;;
14599;SDS011;7386;45.586;12.854;2023-02-01T13:46:38;64.03;;;36.73;;
14599;SDS011;7386;45.586;12.854;2023-02-01T13:49:13;67.10;;;38.53;;
14599;SDS011;7386;45.586;12.854;2023-02-01T13:51:45;60.30;;;35.67;;
14599;SDS011;7386;45.586;12.854;2023-02-01T13:54:24;57.60;;;35.30;;
14599;SDS011;7386;45.586;12.854;2023-02-01T13:56:53;54.93;;;34.23;;
14599;SDS011;7386;45.586;12.854;2023-02-01T14:02:47;60.10;;;35.30;;
14599;SDS011;7386;45.586;12.854;2023-02-01T14:08:07;59.70;;;33.83;;
14599;SDS011;7386;45.586;12.854;2023-02-01T14:10:48;57.10;;;33.33;;
14599;SDS011;7386;45.586;12.854;2023-02-01T14:13:22;53.03;;;32.90;;
14599;SDS011;7386;45.586;12.854;2023-02-01T14:16:11;55.87;;;33.27;;
14599;SDS011;7386;45.586;12.854;2023-02-01T14:18:58;64.60;;;37.53;;
14599;SDS011;7386;45.586;12.854;2023-02-01T14:21:28;59.77;;;34.47;;
14599;SDS011;7386;45.586;12.854;2023-02-01T14:23:59;61.03;;;36.37;;
14599;SDS011;7386;45.586;12.854;2023-02-01T14:26:41;69.07;;;39.63;;
14599;SDS011;7386;45.586;12.854;2023-02-01T14:29:19;61.37;;;36.00;;
14599;SDS011;7386;45.586;12.854;2023-02-01T14:31:52;61.77;;;37.67;;
14599;SDS011;7386;45.586;12.854;2023-02-01T14:34:26;74.03;;;40.53;;
14599;SDS011;7386;45.586;12.854;2023-02-01T14:36:57;71.73;;;41.90;;
14599;SDS011;7386;45.586;12.854;2023-02-01T14:39:27;60.43;;;35.50;;
14599;SDS011;7386;45.586;12.854;2023-02-01T14:41:57;70.10;;;40.37;;
14599;SDS011;7386;45.586;12.854;2023-02-01T14:44:32;73.17;;;41.53;;
14599;SDS011;7386;45.586;12.854;2023-02-01T14:47:11;61.07;;;37.50;;
14599;SDS011;7386;45.586;12.854;2023-02-01T14:49:58;66.57;;;37.93;;
14599;SDS011;7386;45.586;12.854;2023-02-01T14:52:32;76.80;;;42.40;;
14599;SDS011;7386;45.586;12.854;2023-02-01T14:55:03;73.63;;;42.03;;
14599;SDS011;7386;45.586;12.854;2023-02-01T14:57:33;65.93;;;36.83;;
14599;SDS011;7386;45.586;12.854;2023-02-01T15:00:07;83.00;;;42.80;;
14599;SDS011;7386;45.586;12.854;2023-02-01T15:02:36;76.03;;;42.97;;
14599;SDS011;7386;45.586;12.854;2023-02-01T15:05:16;69.77;;;40.07;;
14599;SDS011;7386;45.586;12.854;2023-02-01T15:07:49;64.00;;;37.30;;
14599;SDS011;7386;45.586;12.854;2023-02-01T15:10:18;75.57;;;42.10;;
14599;SDS011;7386;45.586;12.854;2023-02-01T15:12:49;71.40;;;40.30;;